createdAt,value
2023-05-15T00:01:15.671Z,43.39
2023-05-15T00:04:21.660Z,45.05
2023-05-15T00:07:28.572Z,45.44
2023-05-15T00:10:34.457Z,44.17
2023-05-15T00:13:46.249Z,40.00
2023-05-15T00:16:52.570Z,37.70
2023-05-15T00:20:01.856Z,41.47
2023-05-15T00:23:07.854Z,38.94
2023-05-15T00:26:16.010Z,40.11
2023-05-15T00:29:24.481Z,46.38
2023-05-15T00:32:31.265Z,44.07
2023-05-15T00:35:37.298Z,41.12
2023-05-15T00:38:48.392Z,44.11
2023-05-15T00:41:59.048Z,41.74
2023-05-15T00:45:14.421Z,41.66
2023-05-15T00:48:22.937Z,36.58
2023-05-15T00:51:31.588Z,35.85
2023-05-15T00:54:37.791Z,36.80
2023-05-15T00:57:47.339Z,41.46
2023-05-15T01:00:57.404Z,36.84
2023-05-15T01:04:06.864Z,39.84
2023-05-15T01:07:13.171Z,39.88
2023-05-15T01:10:24.417Z,44.56
2023-05-15T01:13:32.068Z,38.95
2023-05-15T01:16:41.871Z,42.15
2023-05-15T01:19:57.362Z,44.41
2023-05-15T01:23:18.705Z,45.06
2023-05-15T01:27:04.804Z,39.89
2023-05-15T01:30:25.420Z,41.72
2023-05-15T01:33:39.306Z,36.47
2023-05-15T01:36:56.906Z,41.93
2023-05-15T01:40:09.691Z,41.43
2023-05-15T01:43:25.346Z,42.33
2023-05-15T01:46:48.214Z,38.74
2023-05-15T01:50:00.542Z,44.04
2023-05-15T01:53:12.567Z,39.79
2023-05-15T01:56:22.351Z,41.55
2023-05-15T01:59:42.079Z,35.35
2023-05-15T02:02:53.736Z,38.59
2023-05-15T02:06:00.525Z,38.76
2023-05-15T02:09:08.015Z,37.79
2023-05-15T02:12:16.512Z,40.33
2023-05-15T02:15:25.156Z,39.82
2023-05-15T02:18:34.883Z,43.96
2023-05-15T02:21:41.197Z,44.97
2023-05-15T02:24:48.467Z,52.30
2023-05-15T02:28:04.110Z,47.67
2023-05-15T02:31:24.749Z,45.76
2023-05-15T02:34:49.004Z,45.87
2023-05-15T02:38:03.690Z,38.77
2023-05-15T02:41:12.973Z,35.55
2023-05-15T02:44:22.829Z,39.45
2023-05-15T02:47:35.512Z,40.98
2023-05-15T02:50:45.321Z,37.81
2023-05-15T02:53:52.476Z,37.56
2023-05-15T02:57:01.818Z,39.19
2023-05-15T03:00:12.101Z,38.73
2023-05-15T03:03:25.021Z,34.24
2023-05-15T03:06:33.642Z,29.31
2023-05-15T03:09:40.557Z,31.71
2023-05-15T03:12:46.578Z,29.36
2023-05-15T03:15:53.454Z,31.31
2023-05-15T03:18:59.418Z,24.72
2023-05-15T03:22:09.475Z,26.94
2023-05-15T03:25:16.109Z,24.83
2023-05-15T03:28:22.820Z,27.87
2023-05-15T03:31:28.867Z,31.12
2023-05-15T03:34:35.865Z,27.73
2023-05-15T03:37:44.520Z,28.26
2023-05-15T03:40:51.382Z,30.13
2023-05-15T03:43:57.650Z,34.27
2023-05-15T03:47:04.652Z,36.49
2023-05-15T03:50:13.026Z,31.80
2023-05-15T03:53:22.557Z,31.72
2023-05-15T03:56:28.579Z,29.89
2023-05-15T03:59:35.436Z,32.44
2023-05-15T04:02:42.711Z,29.99
2023-05-15T04:05:50.515Z,30.23
2023-05-15T04:08:59.055Z,29.90
2023-05-15T04:12:06.269Z,28.84
2023-05-15T04:15:21.842Z,24.89
2023-05-15T04:18:28.737Z,27.87
2023-05-15T04:21:34.701Z,25.65
2023-05-15T04:24:44.237Z,25.73
2023-05-15T04:27:50.406Z,25.80
2023-05-15T04:30:58.959Z,26.21
2023-05-15T04:34:05.457Z,25.60
2023-05-15T04:37:12.427Z,25.83
2023-05-15T04:40:21.533Z,23.52
2023-05-15T04:43:28.344Z,31.65
2023-05-15T04:46:37.729Z,31.84
2023-05-15T04:49:45.725Z,31.81
2023-05-15T04:52:51.619Z,29.66
2023-05-15T04:56:01.093Z,29.13
2023-05-15T04:59:07.106Z,24.72
2023-05-15T05:02:14.339Z,24.87
2023-05-15T05:05:20.961Z,25.05
2023-05-15T05:08:27.702Z,26.91
2023-05-15T05:11:39.550Z,21.33
2023-05-15T05:14:48.402Z,26.37
2023-05-15T05:17:54.556Z,24.70
2023-05-15T05:21:04.329Z,26.94
2023-05-15T05:24:12.535Z,25.19
2023-05-15T05:27:22.280Z,27.78
2023-05-15T05:30:28.228Z,27.34
2023-05-15T05:33:36.724Z,27.32
2023-05-15T05:36:42.634Z,25.59
2023-05-15T05:39:55.452Z,29.25
2023-05-15T05:43:11.326Z,29.69
2023-05-15T05:46:18.159Z,28.93
2023-05-15T05:49:24.416Z,30.06
2023-05-15T05:52:32.794Z,29.28
2023-05-15T05:55:38.893Z,28.83
2023-05-15T05:58:48.578Z,29.18
2023-05-15T06:01:54.634Z,29.80
2023-05-15T06:05:01.740Z,32.69
2023-05-15T06:08:08.393Z,33.35
2023-05-15T06:11:15.091Z,31.30
2023-05-15T06:14:23.616Z,34.26
2023-05-15T06:17:30.308Z,33.26
2023-05-15T06:20:36.670Z,33.85
2023-05-15T06:23:43.325Z,35.16
2023-05-15T06:26:50.422Z,33.58
2023-05-15T06:30:05.022Z,34.92
2023-05-15T06:33:10.970Z,34.62
2023-05-15T06:36:17.717Z,33.98
2023-05-15T06:39:26.982Z,34.11
2023-05-15T06:42:33.823Z,36.03
2023-05-15T06:45:43.110Z,32.37
2023-05-15T06:48:51.335Z,33.39
2023-05-15T06:51:59.288Z,29.25
2023-05-15T06:55:05.905Z,31.96
2023-05-15T06:58:12.029Z,26.87
2023-05-15T07:01:21.482Z,29.15
2023-05-15T07:04:27.682Z,27.93
2023-05-15T07:07:34.549Z,28.99
2023-05-15T07:10:40.433Z,27.15
2023-05-15T07:13:47.400Z,27.85
2023-05-15T07:16:56.293Z,28.29
2023-05-15T07:20:17.121Z,28.83
2023-05-15T07:23:26.780Z,26.95
2023-05-15T07:26:40.995Z,31.93
2023-05-15T07:29:52.791Z,22.51
2023-05-15T07:33:02.188Z,21.26
2023-05-15T07:36:11.719Z,26.30
2023-05-15T07:39:22.739Z,23.83
2023-05-15T07:42:29.388Z,23.34
2023-05-15T07:45:36.250Z,26.05
2023-05-15T07:48:44.953Z,24.13
2023-05-15T07:51:52.081Z,23.71
2023-05-15T07:54:59.013Z,23.95
2023-05-15T07:58:06.722Z,22.73
2023-05-15T08:01:20.688Z,21.80
2023-05-15T08:04:30.011Z,25.61
2023-05-15T08:07:38.235Z,24.19
2023-05-15T08:10:45.035Z,21.36
2023-05-15T08:13:51.093Z,22.32
2023-05-15T08:16:59.958Z,23.81
2023-05-15T08:20:29.269Z,25.48
2023-05-15T08:23:39.516Z,30.42
2023-05-15T08:26:45.677Z,30.54
2023-05-15T08:29:53.174Z,31.15
2023-05-15T08:33:00.382Z,28.42
2023-05-15T08:36:11.529Z,26.19
2023-05-15T08:39:22.555Z,20.78
2023-05-15T08:42:43.290Z,19.08
2023-05-15T08:45:58.779Z,16.66
2023-05-15T08:49:27.069Z,25.49
2023-05-15T08:52:37.589Z,22.71
2023-05-15T08:55:45.499Z,22.37
2023-05-15T08:58:52.705Z,22.92
2023-05-15T09:02:00.475Z,19.82
2023-05-15T09:05:13.428Z,20.40
2023-05-15T09:08:25.981Z,25.01
2023-05-15T09:11:36.599Z,19.48
2023-05-15T09:14:44.263Z,24.74
2023-05-15T09:17:50.545Z,23.80
2023-05-15T09:20:57.352Z,24.30
2023-05-15T09:24:28.479Z,25.37
2023-05-15T09:27:49.048Z,25.80
2023-05-15T09:31:05.016Z,22.53
2023-05-15T09:34:15.011Z,23.40
2023-05-15T09:37:34.298Z,23.14
2023-05-15T09:40:44.007Z,26.08
2023-05-15T09:43:49.853Z,25.41
2023-05-15T09:46:57.329Z,27.57
2023-05-15T09:50:03.384Z,25.34
2023-05-15T09:53:14.191Z,26.23
2023-05-15T09:56:23.219Z,21.79
2023-05-15T09:59:30.115Z,25.48
2023-05-15T10:02:36.625Z,21.75
2023-05-15T10:05:46.646Z,22.03
2023-05-15T10:08:56.261Z,21.05
2023-05-15T10:12:09.025Z,20.11
2023-05-15T10:15:16.954Z,21.82
2023-05-15T10:18:30.744Z,22.09
2023-05-15T10:21:40.130Z,17.82
2023-05-15T10:24:52.144Z,19.36
2023-05-15T10:28:02.934Z,20.02
2023-05-15T10:31:14.007Z,21.47
2023-05-15T10:34:21.747Z,17.57
2023-05-15T10:37:30.645Z,19.39
2023-05-15T10:40:41.309Z,19.10
2023-05-15T10:43:53.329Z,27.71
2023-05-15T10:46:59.671Z,24.96
2023-05-15T10:50:08.449Z,23.93
2023-05-15T10:53:14.673Z,20.17
2023-05-15T10:56:21.765Z,18.46
2023-05-15T10:59:37.936Z,19.18
2023-05-15T11:02:44.796Z,18.87
2023-05-15T11:06:13.169Z,17.68
2023-05-15T11:09:41.806Z,16.75
2023-05-15T11:13:05.613Z,15.17
2023-05-15T11:16:16.587Z,20.37
2023-05-15T11:19:35.653Z,19.14
2023-05-15T11:22:42.343Z,19.73
2023-05-15T11:25:58.862Z,18.24
2023-05-15T11:29:23.364Z,20.11
2023-05-15T11:32:51.320Z,16.73
2023-05-15T11:36:03.209Z,20.54
2023-05-15T11:39:14.919Z,17.89
2023-05-15T11:42:22.721Z,19.18
2023-05-15T11:45:28.992Z,18.51
2023-05-15T11:48:44.581Z,20.42
2023-05-15T11:51:54.069Z,18.70
2023-05-15T11:55:03.233Z,21.88
2023-05-15T11:58:16.562Z,18.76
2023-05-15T12:01:23.332Z,19.04
2023-05-15T12:04:32.212Z,15.62
2023-05-15T12:07:42.168Z,15.71
2023-05-15T12:10:52.262Z,14.49
2023-05-15T12:13:59.821Z,18.44
2023-05-15T12:17:07.039Z,18.43
2023-05-15T12:20:21.122Z,20.16
2023-05-15T12:23:29.332Z,15.64
2023-05-15T12:26:39.694Z,16.28
2023-05-15T12:29:46.823Z,15.15
2023-05-15T12:32:54.712Z,17.38
2023-05-15T12:36:03.343Z,21.52
2023-05-15T12:39:11.476Z,21.84
2023-05-15T12:42:20.766Z,20.42
2023-05-15T12:45:29.112Z,23.17
2023-05-15T12:48:36.360Z,20.65
2023-05-15T12:51:48.813Z,22.22
2023-05-15T12:54:58.624Z,19.30
2023-05-15T12:58:11.893Z,20.82
2023-05-15T13:01:18.934Z,21.39
2023-05-15T13:04:26.354Z,21.49
2023-05-15T13:07:35.859Z,22.26
2023-05-15T13:10:42.821Z,20.44
2023-05-15T13:13:52.338Z,20.25
2023-05-15T13:17:05.119Z,21.15
2023-05-15T13:20:12.617Z,19.65
2023-05-15T13:23:25.276Z,18.04
2023-05-15T13:26:31.153Z,16.89
2023-05-15T13:29:38.540Z,14.38
2023-05-15T13:32:44.840Z,17.11
2023-05-15T13:35:52.137Z,21.13
2023-05-15T13:39:06.375Z,23.89
2023-05-15T13:42:13.181Z,31.23
2023-05-15T13:45:20.360Z,740.52
2023-05-15T13:48:27.283Z,94.84
2023-05-15T13:51:33.390Z,254.23
2023-05-15T13:54:42.908Z,68.26
2023-05-15T13:57:48.997Z,999.63
2023-05-15T14:00:55.941Z,7732.96
2023-05-15T14:04:05.092Z,2760.53
2023-05-15T14:07:11.895Z,255.98
2023-05-15T14:10:24.347Z,1996.09
2023-05-15T14:13:32.006Z,192.04
2023-05-15T14:16:38.038Z,834.06
2023-05-15T14:19:45.101Z,1978.06
2023-05-15T14:22:54.132Z,3114.20
2023-05-15T14:26:05.564Z,17720.08
2023-05-15T14:29:11.589Z,15968.95
2023-05-15T14:32:19.274Z,26278.17
2023-05-15T14:35:32.237Z,7671.31
2023-05-15T14:38:45.841Z,6235.32
2023-05-15T14:41:54.520Z,6875.60
2023-05-15T14:45:14.983Z,6417.17
2023-05-15T14:48:27.422Z,6479.03
2023-05-15T14:51:41.741Z,15480.36
2023-05-15T14:54:56.930Z,22.10
2023-05-15T14:58:11.632Z,26.53
2023-05-15T15:01:22.278Z,22.87
2023-05-15T15:04:30.736Z,23.88
2023-05-15T15:08:05.126Z,325.51
2023-05-15T15:11:12.588Z,26.18
2023-05-15T15:14:24.437Z,22.80
2023-05-15T15:17:31.269Z,44.57
2023-05-15T15:20:37.460Z,55.67
2023-05-15T15:23:45.031Z,51.23
2023-05-15T15:26:53.256Z,41.11
2023-05-15T15:30:04.264Z,47.83
2023-05-15T15:33:10.339Z,43.50
2023-05-15T15:36:17.308Z,55.08
2023-05-15T15:39:23.717Z,68.57
2023-05-15T15:42:31.715Z,69.34
2023-05-15T15:45:40.419Z,66.51
2023-05-15T15:48:47.156Z,67.09
2023-05-15T15:51:53.153Z,54.60
2023-05-15T15:54:59.959Z,64.24
2023-05-15T15:58:06.583Z,57.49
2023-05-15T16:01:16.229Z,64.87
2023-05-15T16:04:23.197Z,58.63
2023-05-15T16:07:30.463Z,24.20
2023-05-15T16:10:39.363Z,27.84
2023-05-15T16:13:46.497Z,35.32
2023-05-15T16:16:55.304Z,29.98
2023-05-15T16:20:02.177Z,37.73
2023-05-15T16:23:09.647Z,39.49
2023-05-15T16:26:16.404Z,304.98
2023-05-15T16:29:22.932Z,874.12
2023-05-15T16:32:34.232Z,23.06
2023-05-15T16:35:40.262Z,26.31
2023-05-15T16:38:47.403Z,21.20
2023-05-15T16:41:53.416Z,31.75
2023-05-15T16:45:00.236Z,39.70
2023-05-15T16:48:09.630Z,37.01
2023-05-15T16:51:17.184Z,38.84
2023-05-15T16:54:23.183Z,31.39
2023-05-15T16:57:29.924Z,34.39
2023-05-15T17:00:35.836Z,32.46
2023-05-15T17:03:45.597Z,33.23
2023-05-15T17:06:51.838Z,38.17
2023-05-15T17:09:58.738Z,43.37
2023-05-15T17:13:04.941Z,45.67
2023-05-15T17:16:11.791Z,42.15
2023-05-15T17:19:20.507Z,41.17
2023-05-15T17:22:27.373Z,52.54
2023-05-15T17:25:36.689Z,53.49
2023-05-15T17:28:43.742Z,54.32
2023-05-15T17:31:50.281Z,52.27
2023-05-15T17:34:59.713Z,51.01
2023-05-15T17:38:05.716Z,42.75
2023-05-15T17:41:12.453Z,49.16
2023-05-15T17:44:18.394Z,48.43
2023-05-15T17:47:25.189Z,41.85
2023-05-15T17:50:38.154Z,39.82
2023-05-15T17:53:45.049Z,39.84
2023-05-15T17:56:53.821Z,35.31
2023-05-15T18:00:00.776Z,35.10
2023-05-15T18:03:18.129Z,32.24
2023-05-15T18:06:28.493Z,43.04
2023-05-15T18:09:34.463Z,34.20
2023-05-15T18:12:41.351Z,35.76
2023-05-15T18:15:47.481Z,40.50
2023-05-15T18:18:55.354Z,43.64
2023-05-15T18:22:04.404Z,36.56
2023-05-15T18:25:11.927Z,43.58
2023-05-15T18:28:21.014Z,35.77
2023-05-15T18:31:27.948Z,51.63
2023-05-15T18:34:34.702Z,44.69
2023-05-15T18:37:44.584Z,54.12
2023-05-15T18:40:51.131Z,47.47
2023-05-15T18:43:58.216Z,42.83
2023-05-15T18:47:04.745Z,35.62
2023-05-15T18:50:14.443Z,34.97
2023-05-15T18:53:23.386Z,26.35
2023-05-15T18:56:30.112Z,31.45
2023-05-15T18:59:38.851Z,31.62
2023-05-15T19:02:45.907Z,34.43
2023-05-15T19:05:52.472Z,30.32
2023-05-15T19:09:01.918Z,34.31
2023-05-15T19:12:08.969Z,25.88
2023-05-15T19:15:18.395Z,35.14
2023-05-15T19:18:24.453Z,26.28
2023-05-15T19:21:55.156Z,24.98
2023-05-15T19:25:03.867Z,27.83
2023-05-15T19:28:11.202Z,19.57
2023-05-15T19:31:30.891Z,21.23
2023-05-15T19:34:38.522Z,20.57
2023-05-15T19:37:45.817Z,23.41
2023-05-15T19:40:55.220Z,25.79
2023-05-15T19:44:02.293Z,27.47
2023-05-15T19:47:12.074Z,30.32
2023-05-15T19:50:22.714Z,27.12
2023-05-15T19:53:30.662Z,25.53
2023-05-15T19:56:41.345Z,23.07
2023-05-15T19:59:53.774Z,29.66
2023-05-15T20:03:00.990Z,27.53
2023-05-15T20:06:08.308Z,23.15
2023-05-15T20:09:20.408Z,21.73
2023-05-15T20:12:32.661Z,24.17
2023-05-15T20:15:40.203Z,24.12
2023-05-15T20:18:48.250Z,22.06
2023-05-15T20:22:07.407Z,22.39
2023-05-15T20:25:15.454Z,27.75
2023-05-15T20:28:44.329Z,20.49
2023-05-15T20:31:51.976Z,21.62
2023-05-15T20:34:58.732Z,21.75
2023-05-15T20:38:05.542Z,28.57
2023-05-15T20:41:11.540Z,27.57
2023-05-15T20:44:21.279Z,31.92
2023-05-15T20:47:27.256Z,30.24
2023-05-15T20:50:34.231Z,31.99
2023-05-15T20:53:46.246Z,27.51
2023-05-15T20:56:53.050Z,27.45
2023-05-15T21:00:01.525Z,29.70
2023-05-15T21:03:09.712Z,29.37
2023-05-15T21:06:17.677Z,27.23
2023-05-15T21:09:24.552Z,30.39
2023-05-15T21:12:34.914Z,31.30
2023-05-15T21:15:44.628Z,36.62
2023-05-15T21:18:50.618Z,32.44
2023-05-15T21:21:57.498Z,31.20
2023-05-15T21:25:04.875Z,28.67
2023-05-15T21:28:11.756Z,29.97
2023-05-15T21:31:20.339Z,30.64
2023-05-15T21:34:27.071Z,31.89
2023-05-15T21:37:34.499Z,27.77
2023-05-15T21:40:41.297Z,27.64
2023-05-15T21:43:52.592Z,24.73
2023-05-15T21:47:02.059Z,23.81
2023-05-15T21:50:09.980Z,24.04
2023-05-15T21:53:17.480Z,27.02
2023-05-15T21:56:26.597Z,25.08
2023-05-15T21:59:35.322Z,22.88
2023-05-15T22:02:43.951Z,20.32
2023-05-15T22:05:51.954Z,22.74
2023-05-15T22:08:57.932Z,20.41
2023-05-15T22:12:04.964Z,24.98
2023-05-15T22:15:16.489Z,23.41
2023-05-15T22:18:26.476Z,24.10
2023-05-15T22:21:34.492Z,22.35
2023-05-15T22:24:41.186Z,23.35
2023-05-15T22:27:47.082Z,23.62
2023-05-15T22:30:59.823Z,23.35
2023-05-15T22:34:15.132Z,22.34
2023-05-15T22:37:22.142Z,24.78
2023-05-15T22:40:28.487Z,25.84
2023-05-15T22:43:35.498Z,27.78
2023-05-15T22:46:41.414Z,28.74
2023-05-15T22:49:50.899Z,28.60
2023-05-15T22:52:57.493Z,25.55
2023-05-15T22:56:04.140Z,27.28
2023-05-15T22:59:10.065Z,27.83
2023-05-15T23:02:16.804Z,25.47
2023-05-15T23:05:26.292Z,19.65
2023-05-15T23:08:37.404Z,22.40
2023-05-15T23:11:43.400Z,22.67
2023-05-15T23:14:53.119Z,23.50
2023-05-15T23:18:05.147Z,24.65
2023-05-15T23:21:14.488Z,24.63
2023-05-15T23:24:20.308Z,24.02
2023-05-15T23:27:33.468Z,25.32
2023-05-15T23:30:48.645Z,23.74
2023-05-15T23:33:55.467Z,25.67
2023-05-15T23:37:05.357Z,23.30
2023-05-15T23:40:13.648Z,24.76
2023-05-15T23:43:19.637Z,24.10
2023-05-15T23:46:26.470Z,24.81
2023-05-15T23:49:33.801Z,22.96
2023-05-15T23:52:46.519Z,25.18
2023-05-15T23:55:52.500Z,21.75
2023-05-15T23:59:01.744Z,22.65
